sensor_id;sensor_type;location;lat;lon;timestamp;P1;durP1;ratioP1;P2;durP2;ratioP2
24483;SDS011;12643;51.620;7.548;2023-08-01T00:00:27;5.68;;;4.45;;
24483;SDS011;12643;51.620;7.548;2023-08-01T00:02:56;3.95;;;3.10;;
24483;SDS011;12643;51.620;7.548;2023-08-01T00:05:24;3.38;;;3.03;;
24483;SDS011;12643;51.620;7.548;2023-08-01T00:07:52;4.40;;;3.38;;
24483;SDS011;12643;51.620;7.548;2023-08-01T00:10:19;6.55;;;3.40;;
24483;SDS011;12643;51.620;7.548;2023-08-01T00:12:47;4.10;;;2.42;;
24483;SDS011;12643;51.620;7.548;2023-08-01T00:15:16;2.90;;;1.98;;
24483;SDS011;12643;51.620;7.548;2023-08-01T00:17:44;3.50;;;2.45;;
24483;SDS011;12643;51.620;7.548;2023-08-01T00:20:12;2.15;;;1.75;;
24483;SDS011;12643;51.620;7.548;2023-08-01T00:22:40;1.67;;;1.58;;
24483;SDS011;12643;51.620;7.548;2023-08-01T00:25:08;2.35;;;1.70;;
24483;SDS011;12643;51.620;7.548;2023-08-01T00:27:36;2.85;;;1.67;;
24483;SDS011;12643;51.620;7.548;2023-08-01T00:30:04;5.28;;;1.40;;
24483;SDS011;12643;51.620;7.548;2023-08-01T00:32:35;1.25;;;1.10;;
24483;SDS011;12643;51.620;7.548;2023-08-01T00:35:03;1.13;;;1.02;;
24483;SDS011;12643;51.620;7.548;2023-08-01T00:37:31;1.48;;;1.08;;
24483;SDS011;12643;51.620;7.548;2023-08-01T00:40:05;1.20;;;1.10;;
24483;SDS011;12643;51.620;7.548;2023-08-01T00:42:35;2.58;;;1.15;;
24483;SDS011;12643;51.620;7.548;2023-08-01T00:45:04;1.50;;;1.40;;
24483;SDS011;12643;51.620;7.548;2023-08-01T00:47:34;1.30;;;1.10;;
24483;SDS011;12643;51.620;7.548;2023-08-01T00:50:02;1.27;;;1.17;;
24483;SDS011;12643;51.620;7.548;2023-08-01T00:52:30;1.30;;;1.00;;
24483;SDS011;12643;51.620;7.548;2023-08-01T00:54:58;1.15;;;0.88;;
24483;SDS011;12643;51.620;7.548;2023-08-01T00:57:26;3.63;;;1.58;;
24483;SDS011;12643;51.620;7.548;2023-08-01T00:59:55;1.83;;;1.40;;
24483;SDS011;12643;51.620;7.548;2023-08-01T01:02:23;1.30;;;1.20;;
24483;SDS011;12643;51.620;7.548;2023-08-01T01:04:52;1.52;;;1.42;;
24483;SDS011;12643;51.620;7.548;2023-08-01T01:07:20;2.03;;;1.77;;
24483;SDS011;12643;51.620;7.548;2023-08-01T01:09:50;1.65;;;1.50;;
24483;SDS011;12643;51.620;7.548;2023-08-01T01:12:18;1.95;;;1.08;;
24483;SDS011;12643;51.620;7.548;2023-08-01T01:14:45;3.55;;;1.23;;
24483;SDS011;12643;51.620;7.548;2023-08-01T01:17:13;1.10;;;1.00;;
24483;SDS011;12643;51.620;7.548;2023-08-01T01:19:41;1.25;;;1.15;;
24483;SDS011;12643;51.620;7.548;2023-08-01T01:22:10;1.23;;;1.13;;
24483;SDS011;12643;51.620;7.548;2023-08-01T01:24:38;1.25;;;1.05;;
24483;SDS011;12643;51.620;7.548;2023-08-01T01:27:07;2.53;;;1.38;;
24483;SDS011;12643;51.620;7.548;2023-08-01T01:29:36;1.95;;;1.23;;
24483;SDS011;12643;51.620;7.548;2023-08-01T01:32:05;4.25;;;1.70;;
24483;SDS011;12643;51.620;7.548;2023-08-01T01:34:33;7.93;;;3.75;;
24483;SDS011;12643;51.620;7.548;2023-08-01T01:37:04;6.53;;;4.63;;
24483;SDS011;12643;51.620;7.548;2023-08-01T01:39:33;10.18;;;5.13;;
24483;SDS011;12643;51.620;7.548;2023-08-01T01:42:01;6.22;;;4.95;;
24483;SDS011;12643;51.620;7.548;2023-08-01T01:44:29;4.95;;;3.72;;
24483;SDS011;12643;51.620;7.548;2023-08-01T01:46:57;5.70;;;4.22;;
24483;SDS011;12643;51.620;7.548;2023-08-01T01:49:25;7.90;;;4.38;;
24483;SDS011;12643;51.620;7.548;2023-08-01T01:51:52;7.18;;;4.30;;
24483;SDS011;12643;51.620;7.548;2023-08-01T01:54:21;6.72;;;3.55;;
24483;SDS011;12643;51.620;7.548;2023-08-01T01:56:50;9.57;;;4.20;;
24483;SDS011;12643;51.620;7.548;2023-08-01T01:59:18;6.75;;;3.25;;
24483;SDS011;12643;51.620;7.548;2023-08-01T02:01:46;4.43;;;3.03;;
24483;SDS011;12643;51.620;7.548;2023-08-01T02:04:14;5.10;;;3.17;;
24483;SDS011;12643;51.620;7.548;2023-08-01T02:06:41;3.60;;;2.65;;
24483;SDS011;12643;51.620;7.548;2023-08-01T02:09:09;5.82;;;2.65;;
24483;SDS011;12643;51.620;7.548;2023-08-01T02:11:37;3.75;;;2.85;;
24483;SDS011;12643;51.620;7.548;2023-08-01T02:14:06;3.05;;;2.05;;
24483;SDS011;12643;51.620;7.548;2023-08-01T02:16:34;2.47;;;2.30;;
24483;SDS011;12643;51.620;7.548;2023-08-01T02:19:02;2.90;;;2.58;;
24483;SDS011;12643;51.620;7.548;2023-08-01T02:21:30;3.28;;;2.90;;
24483;SDS011;12643;51.620;7.548;2023-08-01T02:23:57;3.95;;;2.50;;
24483;SDS011;12643;51.620;7.548;2023-08-01T02:26:25;4.00;;;2.13;;
24483;SDS011;12643;51.620;7.548;2023-08-01T02:28:54;3.30;;;2.40;;
24483;SDS011;12643;51.620;7.548;2023-08-01T02:31:23;2.75;;;2.30;;
24483;SDS011;12643;51.620;7.548;2023-08-01T02:33:51;4.82;;;2.50;;
24483;SDS011;12643;51.620;7.548;2023-08-01T02:36:19;2.63;;;2.42;;
24483;SDS011;12643;51.620;7.548;2023-08-01T02:38:47;3.38;;;2.10;;
24483;SDS011;12643;51.620;7.548;2023-08-01T02:41:14;3.53;;;2.15;;
24483;SDS011;12643;51.620;7.548;2023-08-01T02:43:42;3.25;;;2.42;;
24483;SDS011;12643;51.620;7.548;2023-08-01T02:46:10;4.05;;;2.80;;
24483;SDS011;12643;51.620;7.548;2023-08-01T02:48:39;3.65;;;2.63;;
24483;SDS011;12643;51.620;7.548;2023-08-01T02:51:07;3.47;;;2.78;;
24483;SDS011;12643;51.620;7.548;2023-08-01T02:56:06;5.15;;;3.25;;
24483;SDS011;12643;51.620;7.548;2023-08-01T02:58:35;5.57;;;3.65;;
24483;SDS011;12643;51.620;7.548;2023-08-01T03:01:05;4.60;;;3.28;;
24483;SDS011;12643;51.620;7.548;2023-08-01T03:03:36;5.88;;;3.25;;
24483;SDS011;12643;51.620;7.548;2023-08-01T03:06:05;9.60;;;3.83;;
24483;SDS011;12643;51.620;7.548;2023-08-01T03:08:33;4.47;;;3.30;;
24483;SDS011;12643;51.620;7.548;2023-08-01T03:11:01;4.95;;;3.58;;
24483;SDS011;12643;51.620;7.548;2023-08-01T03:13:28;6.03;;;3.85;;
24483;SDS011;12643;51.620;7.548;2023-08-01T03:15:56;6.97;;;4.75;;
24483;SDS011;12643;51.620;7.548;2023-08-01T03:18:24;9.27;;;3.75;;
24483;SDS011;12643;51.620;7.548;2023-08-01T03:20:52;5.55;;;4.20;;
24483;SDS011;12643;51.620;7.548;2023-08-01T03:23:21;6.55;;;4.80;;
24483;SDS011;12643;51.620;7.548;2023-08-01T03:25:49;7.15;;;5.72;;
24483;SDS011;12643;51.620;7.548;2023-08-01T03:28:16;9.85;;;6.70;;
24483;SDS011;12643;51.620;7.548;2023-08-01T03:30:44;8.82;;;6.57;;
24483;SDS011;12643;51.620;7.548;2023-08-01T03:33:15;8.77;;;7.18;;
24483;SDS011;12643;51.620;7.548;2023-08-01T03:35:43;10.35;;;6.90;;
24483;SDS011;12643;51.620;7.548;2023-08-01T03:38:10;12.27;;;8.52;;
24483;SDS011;12643;51.620;7.548;2023-08-01T03:40:39;12.10;;;9.05;;
24483;SDS011;12643;51.620;7.548;2023-08-01T03:43:07;12.38;;;9.38;;
24483;SDS011;12643;51.620;7.548;2023-08-01T03:45:36;11.70;;;10.07;;
24483;SDS011;12643;51.620;7.548;2023-08-01T03:48:03;16.15;;;10.65;;
24483;SDS011;12643;51.620;7.548;2023-08-01T03:50:31;13.68;;;11.10;;
24483;SDS011;12643;51.620;7.548;2023-08-01T03:52:59;17.92;;;12.05;;
24483;SDS011;12643;51.620;7.548;2023-08-01T03:55:27;13.38;;;10.52;;
24483;SDS011;12643;51.620;7.548;2023-08-01T03:57:56;14.13;;;12.10;;
24483;SDS011;12643;51.620;7.548;2023-08-01T04:00:24;15.27;;;11.93;;
24483;SDS011;12643;51.620;7.548;2023-08-01T04:02:57;14.43;;;11.55;;
24483;SDS011;12643;51.620;7.548;2023-08-01T04:05:25;15.93;;;13.15;;
24483;SDS011;12643;51.620;7.548;2023-08-01T04:07:53;14.02;;;12.50;;
24483;SDS011;12643;51.620;7.548;2023-08-01T04:10:21;17.70;;;11.65;;
24483;SDS011;12643;51.620;7.548;2023-08-01T04:12:49;18.95;;;12.90;;
24483;SDS011;12643;51.620;7.548;2023-08-01T04:15:18;17.13;;;13.90;;
24483;SDS011;12643;51.620;7.548;2023-08-01T04:17:46;20.08;;;12.30;;
24483;SDS011;12643;51.620;7.548;2023-08-01T04:20:14;14.98;;;12.38;;
24483;SDS011;12643;51.620;7.548;2023-08-01T04:22:42;18.65;;;14.23;;
24483;SDS011;12643;51.620;7.548;2023-08-01T04:25:10;15.70;;;13.50;;
24483;SDS011;12643;51.620;7.548;2023-08-01T04:27:38;18.08;;;13.95;;
24483;SDS011;12643;51.620;7.548;2023-08-01T04:30:06;18.52;;;14.38;;
24483;SDS011;12643;51.620;7.548;2023-08-01T04:32:35;23.02;;;14.52;;
24483;SDS011;12643;51.620;7.548;2023-08-01T04:35:05;18.60;;;14.02;;
24483;SDS011;12643;51.620;7.548;2023-08-01T04:37:34;22.67;;;14.73;;
24483;SDS011;12643;51.620;7.548;2023-08-01T04:40:02;21.77;;;15.98;;
24483;SDS011;12643;51.620;7.548;2023-08-01T04:42:30;23.23;;;15.63;;
24483;SDS011;12643;51.620;7.548;2023-08-01T04:44:57;27.45;;;17.20;;
24483;SDS011;12643;51.620;7.548;2023-08-01T04:47:25;24.70;;;16.80;;
24483;SDS011;12643;51.620;7.548;2023-08-01T04:49:54;29.80;;;17.80;;
24483;SDS011;12643;51.620;7.548;2023-08-01T04:52:22;24.33;;;16.42;;
24483;SDS011;12643;51.620;7.548;2023-08-01T04:54:52;19.88;;;15.55;;
24483;SDS011;12643;51.620;7.548;2023-08-01T04:57:20;26.55;;;14.82;;
24483;SDS011;12643;51.620;7.548;2023-08-01T04:59:47;20.65;;;15.07;;
24483;SDS011;12643;51.620;7.548;2023-08-01T05:02:15;21.85;;;16.27;;
24483;SDS011;12643;51.620;7.548;2023-08-01T05:04:43;23.40;;;16.13;;
24483;SDS011;12643;51.620;7.548;2023-08-01T05:07:12;28.55;;;16.70;;
24483;SDS011;12643;51.620;7.548;2023-08-01T05:09:40;22.40;;;16.02;;
24483;SDS011;12643;51.620;7.548;2023-08-01T05:12:08;29.17;;;16.88;;
24483;SDS011;12643;51.620;7.548;2023-08-01T05:14:36;22.92;;;15.32;;
24483;SDS011;12643;51.620;7.548;2023-08-01T05:17:04;23.05;;;14.35;;
24483;SDS011;12643;51.620;7.548;2023-08-01T05:19:32;24.65;;;14.75;;
24483;SDS011;12643;51.620;7.548;2023-08-01T05:21:59;23.90;;;14.63;;
24483;SDS011;12643;51.620;7.548;2023-08-01T05:24:29;22.38;;;14.80;;
24483;SDS011;12643;51.620;7.548;2023-08-01T05:26:58;25.50;;;14.98;;
24483;SDS011;12643;51.620;7.548;2023-08-01T05:29:26;22.58;;;14.80;;
24483;SDS011;12643;51.620;7.548;2023-08-01T05:31:54;27.40;;;15.63;;
24483;SDS011;12643;51.620;7.548;2023-08-01T05:34:22;22.40;;;14.32;;
24483;SDS011;12643;51.620;7.548;2023-08-01T05:36:50;25.85;;;14.52;;
24483;SDS011;12643;51.620;7.548;2023-08-01T05:39:19;24.67;;;15.07;;
24483;SDS011;12643;51.620;7.548;2023-08-01T05:41:49;24.70;;;16.02;;
24483;SDS011;12643;51.620;7.548;2023-08-01T05:46:57;23.80;;;15.75;;
24483;SDS011;12643;51.620;7.548;2023-08-01T05:49:26;27.90;;;18.33;;
24483;SDS011;12643;51.620;7.548;2023-08-01T05:51:55;27.85;;;18.08;;
24483;SDS011;12643;51.620;7.548;2023-08-01T05:54:22;25.30;;;18.23;;
24483;SDS011;12643;51.620;7.548;2023-08-01T05:56:53;29.08;;;18.35;;
24483;SDS011;12643;51.620;7.548;2023-08-01T05:59:22;30.90;;;17.58;;
24483;SDS011;12643;51.620;7.548;2023-08-01T06:01:50;33.55;;;18.40;;
24483;SDS011;12643;51.620;7.548;2023-08-01T06:04:18;26.92;;;16.60;;
24483;SDS011;12643;51.620;7.548;2023-08-01T06:06:46;25.20;;;17.92;;
24483;SDS011;12643;51.620;7.548;2023-08-01T06:09:15;22.25;;;16.60;;
24483;SDS011;12643;51.620;7.548;2023-08-01T06:11:43;29.27;;;17.70;;
24483;SDS011;12643;51.620;7.548;2023-08-01T06:14:20;30.48;;;19.10;;
24483;SDS011;12643;51.620;7.548;2023-08-01T06:19:39;33.05;;;18.40;;
24483;SDS011;12643;51.620;7.548;2023-08-01T06:22:07;25.38;;;17.10;;
24483;SDS011;12643;51.620;7.548;2023-08-01T06:24:35;27.50;;;16.38;;
24483;SDS011;12643;51.620;7.548;2023-08-01T06:27:12;28.77;;;18.73;;
24483;SDS011;12643;51.620;7.548;2023-08-01T06:29:42;29.55;;;19.80;;
24483;SDS011;12643;51.620;7.548;2023-08-01T06:32:11;27.77;;;18.90;;
24483;SDS011;12643;51.620;7.548;2023-08-01T06:34:39;30.58;;;19.48;;
24483;SDS011;12643;51.620;7.548;2023-08-01T06:37:07;31.58;;;19.63;;
24483;SDS011;12643;51.620;7.548;2023-08-01T06:39:37;31.35;;;20.85;;
24483;SDS011;12643;51.620;7.548;2023-08-01T06:42:05;28.80;;;20.27;;
24483;SDS011;12643;51.620;7.548;2023-08-01T06:44:46;27.58;;;21.00;;
24483;SDS011;12643;51.620;7.548;2023-08-01T06:47:16;34.13;;;21.80;;
24483;SDS011;12643;51.620;7.548;2023-08-01T06:49:44;26.35;;;21.75;;
24483;SDS011;12643;51.620;7.548;2023-08-01T06:52:13;28.60;;;20.85;;
24483;SDS011;12643;51.620;7.548;2023-08-01T06:54:42;30.20;;;21.08;;
24483;SDS011;12643;51.620;7.548;2023-08-01T06:57:13;34.35;;;21.50;;
24483;SDS011;12643;51.620;7.548;2023-08-01T06:59:42;32.38;;;22.95;;
24483;SDS011;12643;51.620;7.548;2023-08-01T07:02:20;27.88;;;21.17;;
24483;SDS011;12643;51.620;7.548;2023-08-01T07:04:49;30.98;;;21.40;;
24483;SDS011;12643;51.620;7.548;2023-08-01T07:07:19;30.38;;;21.55;;
24483;SDS011;12643;51.620;7.548;2023-08-01T07:09:47;30.40;;;20.70;;
24483;SDS011;12643;51.620;7.548;2023-08-01T07:12:16;31.80;;;20.98;;
24483;SDS011;12643;51.620;7.548;2023-08-01T07:14:44;28.48;;;20.25;;
24483;SDS011;12643;51.620;7.548;2023-08-01T07:17:15;30.88;;;20.67;;
24483;SDS011;12643;51.620;7.548;2023-08-01T07:19:45;35.72;;;22.10;;
24483;SDS011;12643;51.620;7.548;2023-08-01T07:22:13;25.13;;;19.90;;
24483;SDS011;12643;51.620;7.548;2023-08-01T07:24:42;31.73;;;21.63;;
24483;SDS011;12643;51.620;7.548;2023-08-01T07:27:10;30.60;;;19.75;;
24483;SDS011;12643;51.620;7.548;2023-08-01T07:29:39;26.17;;;19.23;;
24483;SDS011;12643;51.620;7.548;2023-08-01T07:32:07;27.35;;;19.60;;
24483;SDS011;12643;51.620;7.548;2023-08-01T07:34:37;28.30;;;19.55;;
24483;SDS011;12643;51.620;7.548;2023-08-01T07:37:07;26.27;;;19.35;;
24483;SDS011;12643;51.620;7.548;2023-08-01T07:39:36;27.00;;;19.20;;
24483;SDS011;12643;51.620;7.548;2023-08-01T07:42:05;27.80;;;18.88;;
24483;SDS011;12643;51.620;7.548;2023-08-01T07:44:37;30.73;;;19.63;;
24483;SDS011;12643;51.620;7.548;2023-08-01T07:47:06;28.83;;;17.95;;
24483;SDS011;12643;51.620;7.548;2023-08-01T07:49:34;26.25;;;18.77;;
24483;SDS011;12643;51.620;7.548;2023-08-01T07:52:02;31.65;;;17.65;;
24483;SDS011;12643;51.620;7.548;2023-08-01T07:54:32;24.75;;;17.88;;
24483;SDS011;12643;51.620;7.548;2023-08-01T07:57:00;21.05;;;16.65;;
24483;SDS011;12643;51.620;7.548;2023-08-01T07:59:28;24.77;;;16.20;;
24483;SDS011;12643;51.620;7.548;2023-08-01T08:02:00;20.92;;;15.77;;
24483;SDS011;12643;51.620;7.548;2023-08-01T08:04:27;29.27;;;17.25;;
24483;SDS011;12643;51.620;7.548;2023-08-01T08:06:55;24.75;;;15.05;;
24483;SDS011;12643;51.620;7.548;2023-08-01T08:09:29;23.90;;;17.02;;
24483;SDS011;12643;51.620;7.548;2023-08-01T08:11:59;20.67;;;15.65;;
24483;SDS011;12643;51.620;7.548;2023-08-01T08:14:27;27.20;;;15.93;;
24483;SDS011;12643;51.620;7.548;2023-08-01T08:16:57;21.75;;;15.23;;
24483;SDS011;12643;51.620;7.548;2023-08-01T08:19:26;24.38;;;15.05;;
24483;SDS011;12643;51.620;7.548;2023-08-01T08:21:54;22.95;;;13.82;;
24483;SDS011;12643;51.620;7.548;2023-08-01T08:24:22;20.63;;;13.00;;
24483;SDS011;12643;51.620;7.548;2023-08-01T08:26:53;18.77;;;13.52;;
24483;SDS011;12643;51.620;7.548;2023-08-01T08:29:22;18.27;;;12.15;;
24483;SDS011;12643;51.620;7.548;2023-08-01T08:31:50;21.58;;;13.80;;
24483;SDS011;12643;51.620;7.548;2023-08-01T08:34:24;20.02;;;13.00;;
24483;SDS011;12643;51.620;7.548;2023-08-01T08:36:52;18.63;;;12.20;;
24483;SDS011;12643;51.620;7.548;2023-08-01T08:39:20;18.73;;;12.82;;
24483;SDS011;12643;51.620;7.548;2023-08-01T08:41:48;18.15;;;11.23;;
24483;SDS011;12643;51.620;7.548;2023-08-01T08:44:19;19.45;;;12.05;;
24483;SDS011;12643;51.620;7.548;2023-08-01T08:46:50;16.77;;;11.35;;
24483;SDS011;12643;51.620;7.548;2023-08-01T08:49:20;17.77;;;10.55;;
24483;SDS011;12643;51.620;7.548;2023-08-01T08:51:52;19.67;;;10.85;;
24483;SDS011;12643;51.620;7.548;2023-08-01T08:54:22;17.10;;;10.45;;
24483;SDS011;12643;51.620;7.548;2023-08-01T08:56:52;14.30;;;10.25;;
24483;SDS011;12643;51.620;7.548;2023-08-01T08:59:22;14.32;;;9.50;;
24483;SDS011;12643;51.620;7.548;2023-08-01T09:01:52;18.50;;;9.77;;
24483;SDS011;12643;51.620;7.548;2023-08-01T09:06:55;15.20;;;8.13;;
24483;SDS011;12643;51.620;7.548;2023-08-01T09:09:26;10.93;;;8.00;;
24483;SDS011;12643;51.620;7.548;2023-08-01T09:11:54;14.40;;;8.18;;
24483;SDS011;12643;51.620;7.548;2023-08-01T09:14:24;13.20;;;8.73;;
24483;SDS011;12643;51.620;7.548;2023-08-01T09:16:53;15.32;;;9.82;;
24483;SDS011;12643;51.620;7.548;2023-08-01T09:19:21;14.32;;;8.68;;
24483;SDS011;12643;51.620;7.548;2023-08-01T09:21:54;16.23;;;8.88;;
24483;SDS011;12643;51.620;7.548;2023-08-01T09:24:22;15.23;;;8.40;;
24483;SDS011;12643;51.620;7.548;2023-08-01T09:26:51;11.35;;;7.40;;
24483;SDS011;12643;51.620;7.548;2023-08-01T09:29:21;12.48;;;7.57;;
24483;SDS011;12643;51.620;7.548;2023-08-01T09:31:53;17.85;;;7.82;;
24483;SDS011;12643;51.620;7.548;2023-08-01T09:34:21;10.67;;;7.00;;
24483;SDS011;12643;51.620;7.548;2023-08-01T09:36:51;10.35;;;7.05;;
24483;SDS011;12643;51.620;7.548;2023-08-01T09:39:24;13.07;;;7.35;;
24483;SDS011;12643;51.620;7.548;2023-08-01T09:41:55;18.20;;;7.25;;
24483;SDS011;12643;51.620;7.548;2023-08-01T09:44:23;12.73;;;6.35;;
24483;SDS011;12643;51.620;7.548;2023-08-01T09:46:58;13.00;;;7.63;;
24483;SDS011;12643;51.620;7.548;2023-08-01T09:49:28;18.83;;;7.88;;
24483;SDS011;12643;51.620;7.548;2023-08-01T09:51:57;11.95;;;7.75;;
24483;SDS011;12643;51.620;7.548;2023-08-01T09:54:33;12.52;;;7.35;;
24483;SDS011;12643;51.620;7.548;2023-08-01T09:57:00;12.75;;;7.97;;
24483;SDS011;12643;51.620;7.548;2023-08-01T10:02:03;10.77;;;7.32;;
24483;SDS011;12643;51.620;7.548;2023-08-01T10:04:36;12.13;;;7.55;;
24483;SDS011;12643;51.620;7.548;2023-08-01T10:07:08;14.20;;;7.20;;
24483;SDS011;12643;51.620;7.548;2023-08-01T10:09:40;14.05;;;5.28;;
24483;SDS011;12643;51.620;7.548;2023-08-01T10:12:12;11.43;;;5.82;;
24483;SDS011;12643;51.620;7.548;2023-08-01T10:14:42;8.77;;;5.68;;
24483;SDS011;12643;51.620;7.548;2023-08-01T10:17:13;12.18;;;5.85;;
24483;SDS011;12643;51.620;7.548;2023-08-01T10:19:42;8.13;;;5.28;;
24483;SDS011;12643;51.620;7.548;2023-08-01T10:22:11;7.88;;;5.18;;
24483;SDS011;12643;51.620;7.548;2023-08-01T10:24:39;10.63;;;5.55;;
24483;SDS011;12643;51.620;7.548;2023-08-01T10:27:11;8.95;;;5.78;;
24483;SDS011;12643;51.620;7.548;2023-08-01T10:29:41;10.55;;;5.05;;
24483;SDS011;12643;51.620;7.548;2023-08-01T10:32:09;8.05;;;5.40;;
24483;SDS011;12643;51.620;7.548;2023-08-01T10:34:38;11.02;;;5.07;;
24483;SDS011;12643;51.620;7.548;2023-08-01T10:37:17;6.65;;;4.82;;
24483;SDS011;12643;51.620;7.548;2023-08-01T10:39:55;9.00;;;4.57;;
24483;SDS011;12643;51.620;7.548;2023-08-01T10:42:23;9.18;;;5.15;;
24483;SDS011;12643;51.620;7.548;2023-08-01T10:44:53;9.57;;;4.88;;
24483;SDS011;12643;51.620;7.548;2023-08-01T10:47:28;9.00;;;4.68;;
24483;SDS011;12643;51.620;7.548;2023-08-01T10:49:58;8.88;;;4.60;;
24483;SDS011;12643;51.620;7.548;2023-08-01T10:52:27;10.88;;;4.50;;
24483;SDS011;12643;51.620;7.548;2023-08-01T10:54:57;9.77;;;4.78;;
24483;SDS011;12643;51.620;7.548;2023-08-01T10:57:28;8.40;;;5.13;;
24483;SDS011;12643;51.620;7.548;2023-08-01T11:02:27;10.07;;;4.97;;
24483;SDS011;12643;51.620;7.548;2023-08-01T11:07:31;7.25;;;4.95;;
24483;SDS011;12643;51.620;7.548;2023-08-01T11:10:07;10.48;;;4.63;;
24483;SDS011;12643;51.620;7.548;2023-08-01T11:12:36;10.77;;;5.20;;
24483;SDS011;12643;51.620;7.548;2023-08-01T11:15:06;12.63;;;4.90;;
24483;SDS011;12643;51.620;7.548;2023-08-01T11:17:35;9.57;;;5.57;;
24483;SDS011;12643;51.620;7.548;2023-08-01T11:20:06;11.45;;;5.45;;
24483;SDS011;12643;51.620;7.548;2023-08-01T11:22:35;9.00;;;5.70;;
24483;SDS011;12643;51.620;7.548;2023-08-01T11:25:03;9.63;;;5.03;;
24483;SDS011;12643;51.620;7.548;2023-08-01T11:27:31;11.23;;;4.45;;
24483;SDS011;12643;51.620;7.548;2023-08-01T11:30:01;11.50;;;4.80;;
24483;SDS011;12643;51.620;7.548;2023-08-01T11:35:07;9.40;;;3.15;;
24483;SDS011;12643;51.620;7.548;2023-08-01T11:37:35;6.85;;;3.22;;
24483;SDS011;12643;51.620;7.548;2023-08-01T11:40:03;6.13;;;3.88;;
24483;SDS011;12643;51.620;7.548;2023-08-01T11:42:39;5.40;;;4.00;;
24483;SDS011;12643;51.620;7.548;2023-08-01T11:45:07;10.25;;;3.80;;
24483;SDS011;12643;51.620;7.548;2023-08-01T11:47:37;9.57;;;4.50;;
24483;SDS011;12643;51.620;7.548;2023-08-01T11:50:12;11.32;;;4.85;;
24483;SDS011;12643;51.620;7.548;2023-08-01T11:52:40;8.73;;;5.25;;
24483;SDS011;12643;51.620;7.548;2023-08-01T11:55:18;10.07;;;5.20;;
24483;SDS011;12643;51.620;7.548;2023-08-01T11:57:56;9.93;;;4.65;;
24483;SDS011;12643;51.620;7.548;2023-08-01T12:00:28;8.63;;;4.13;;
24483;SDS011;12643;51.620;7.548;2023-08-01T12:03:05;8.43;;;4.70;;
24483;SDS011;12643;51.620;7.548;2023-08-01T12:05:39;6.13;;;4.20;;
24483;SDS011;12643;51.620;7.548;2023-08-01T12:08:12;14.48;;;4.90;;
24483;SDS011;12643;51.620;7.548;2023-08-01T12:10:41;7.20;;;3.88;;
24483;SDS011;12643;51.620;7.548;2023-08-01T12:13:19;8.70;;;4.43;;
24483;SDS011;12643;51.620;7.548;2023-08-01T12:15:47;10.65;;;4.55;;
24483;SDS011;12643;51.620;7.548;2023-08-01T12:18:22;11.45;;;5.07;;
24483;SDS011;12643;51.620;7.548;2023-08-01T12:20:55;8.38;;;3.90;;
24483;SDS011;12643;51.620;7.548;2023-08-01T12:23:25;5.95;;;3.08;;
24483;SDS011;12643;51.620;7.548;2023-08-01T12:25:53;7.38;;;2.72;;
24483;SDS011;12643;51.620;7.548;2023-08-01T12:28:23;8.15;;;3.03;;
24483;SDS011;12643;51.620;7.548;2023-08-01T12:30:51;6.25;;;2.65;;
24483;SDS011;12643;51.620;7.548;2023-08-01T12:33:19;7.20;;;3.03;;
24483;SDS011;12643;51.620;7.548;2023-08-01T12:35:47;4.97;;;2.22;;
24483;SDS011;12643;51.620;7.548;2023-08-01T12:38:17;5.50;;;2.90;;
24483;SDS011;12643;51.620;7.548;2023-08-01T12:40:45;4.25;;;2.17;;
24483;SDS011;12643;51.620;7.548;2023-08-01T12:43:14;6.05;;;2.35;;
24483;SDS011;12643;51.620;7.548;2023-08-01T12:45:44;4.63;;;2.13;;
24483;SDS011;12643;51.620;7.548;2023-08-01T12:48:12;5.22;;;2.35;;
24483;SDS011;12643;51.620;7.548;2023-08-01T12:50:43;7.63;;;2.35;;
24483;SDS011;12643;51.620;7.548;2023-08-01T12:53:12;7.40;;;2.38;;
24483;SDS011;12643;51.620;7.548;2023-08-01T12:55:45;7.82;;;2.75;;
24483;SDS011;12643;51.620;7.548;2023-08-01T12:58:13;5.18;;;2.88;;
24483;SDS011;12643;51.620;7.548;2023-08-01T13:00:42;5.18;;;2.33;;
24483;SDS011;12643;51.620;7.548;2023-08-01T13:03:11;8.18;;;2.42;;
24483;SDS011;12643;51.620;7.548;2023-08-01T13:05:40;9.95;;;2.85;;
24483;SDS011;12643;51.620;7.548;2023-08-01T13:08:10;8.48;;;2.70;;
24483;SDS011;12643;51.620;7.548;2023-08-01T13:10:39;6.72;;;2.53;;
24483;SDS011;12643;51.620;7.548;2023-08-01T13:13:10;8.88;;;2.45;;
24483;SDS011;12643;51.620;7.548;2023-08-01T13:15:38;8.20;;;2.83;;
24483;SDS011;12643;51.620;7.548;2023-08-01T13:18:06;6.78;;;2.50;;
24483;SDS011;12643;51.620;7.548;2023-08-01T13:20:34;6.25;;;2.83;;
24483;SDS011;12643;51.620;7.548;2023-08-01T13:23:02;8.98;;;3.03;;
24483;SDS011;12643;51.620;7.548;2023-08-01T13:25:30;8.70;;;3.20;;
24483;SDS011;12643;51.620;7.548;2023-08-01T13:27:59;8.80;;;2.83;;
24483;SDS011;12643;51.620;7.548;2023-08-01T13:30:29;4.78;;;2.40;;
24483;SDS011;12643;51.620;7.548;2023-08-01T13:32:57;4.97;;;2.30;;
24483;SDS011;12643;51.620;7.548;2023-08-01T13:35:25;7.53;;;2.97;;
24483;SDS011;12643;51.620;7.548;2023-08-01T13:37:53;7.25;;;2.90;;
24483;SDS011;12643;51.620;7.548;2023-08-01T13:40:22;6.63;;;2.90;;
24483;SDS011;12643;51.620;7.548;2023-08-01T13:42:51;6.53;;;2.78;;
24483;SDS011;12643;51.620;7.548;2023-08-01T13:45:20;8.18;;;3.20;;
24483;SDS011;12643;51.620;7.548;2023-08-01T13:47:48;5.40;;;3.13;;
24483;SDS011;12643;51.620;7.548;2023-08-01T13:50:16;7.95;;;3.08;;
24483;SDS011;12643;51.620;7.548;2023-08-01T13:52:45;6.07;;;2.50;;
24483;SDS011;12643;51.620;7.548;2023-08-01T13:55:13;9.00;;;2.92;;
24483;SDS011;12643;51.620;7.548;2023-08-01T13:57:46;6.28;;;2.47;;
24483;SDS011;12643;51.620;7.548;2023-08-01T14:00:14;6.22;;;2.92;;
24483;SDS011;12643;51.620;7.548;2023-08-01T14:02:44;6.72;;;2.72;;
24483;SDS011;12643;51.620;7.548;2023-08-01T14:05:14;7.57;;;2.63;;
24483;SDS011;12643;51.620;7.548;2023-08-01T14:07:41;7.47;;;2.92;;
24483;SDS011;12643;51.620;7.548;2023-08-01T14:10:09;7.45;;;2.60;;
24483;SDS011;12643;51.620;7.548;2023-08-01T14:15:09;5.72;;;2.40;;
24483;SDS011;12643;51.620;7.548;2023-08-01T14:17:38;6.18;;;2.17;;
24483;SDS011;12643;51.620;7.548;2023-08-01T14:20:08;5.60;;;2.67;;
24483;SDS011;12643;51.620;7.548;2023-08-01T14:22:36;6.30;;;2.07;;
24483;SDS011;12643;51.620;7.548;2023-08-01T14:25:05;7.93;;;2.35;;
24483;SDS011;12643;51.620;7.548;2023-08-01T14:27:37;3.67;;;1.90;;
24483;SDS011;12643;51.620;7.548;2023-08-01T14:30:05;5.93;;;2.13;;
24483;SDS011;12643;51.620;7.548;2023-08-01T14:32:36;7.28;;;2.28;;
24483;SDS011;12643;51.620;7.548;2023-08-01T14:35:05;8.65;;;2.00;;
24483;SDS011;12643;51.620;7.548;2023-08-01T14:40:04;7.82;;;2.00;;
24483;SDS011;12643;51.620;7.548;2023-08-01T14:42:32;6.05;;;2.22;;
24483;SDS011;12643;51.620;7.548;2023-08-01T14:45:02;6.28;;;2.33;;
24483;SDS011;12643;51.620;7.548;2023-08-01T14:47:36;9.95;;;2.05;;
24483;SDS011;12643;51.620;7.548;2023-08-01T14:50:04;5.55;;;1.98;;
24483;SDS011;12643;51.620;7.548;2023-08-01T14:52:34;4.00;;;2.10;;
24483;SDS011;12643;51.620;7.548;2023-08-01T14:55:03;3.88;;;1.73;;
24483;SDS011;12643;51.620;7.548;2023-08-01T14:57:35;6.40;;;1.90;;
24483;SDS011;12643;51.620;7.548;2023-08-01T15:00:03;3.85;;;2.13;;
24483;SDS011;12643;51.620;7.548;2023-08-01T15:02:36;6.13;;;2.28;;
24483;SDS011;12643;51.620;7.548;2023-08-01T15:05:06;4.97;;;2.17;;
24483;SDS011;12643;51.620;7.548;2023-08-01T15:07:36;3.95;;;1.95;;
24483;SDS011;12643;51.620;7.548;2023-08-01T15:10:04;7.32;;;2.55;;
24483;SDS011;12643;51.620;7.548;2023-08-01T15:12:33;5.28;;;1.95;;